sensor_id;sensor_type;location;lat;lon;timestamp;pressure;altitude;pressure_sealevel;temperature;humidity
6094;BME280;19964;42.060;24.700;2023-10-13T00:01:09;97989.41;;;11.59;90.40
6094;BME280;19964;42.060;24.700;2023-10-13T00:03:37;97992.88;;;11.71;89.77
6094;BME280;19964;42.060;24.700;2023-10-13T00:06:05;97992.44;;;11.74;89.34
6094;BME280;19964;42.060;24.700;2023-10-13T00:08:33;97992.91;;;11.64;89.58
6094;BME280;19964;42.060;24.700;2023-10-13T00:11:03;97930.25;;;11.31;89.71
6094;BME280;19964;42.060;24.700;2023-10-13T00:13:30;97984.16;;;11.66;89.86
6094;BME280;19964;42.060;24.700;2023-10-13T00:16:06;97984.06;;;11.54;90.92
6094;BME280;19964;42.060;24.700;2023-10-13T00:18:36;97978.44;;;11.57;91.03
6094;BME280;19964;42.060;24.700;2023-10-13T00:21:06;97984.44;;;11.57;91.03
6094;BME280;19964;42.060;24.700;2023-10-13T00:23:38;97981.56;;;11.66;90.34
6094;BME280;19964;42.060;24.700;2023-10-13T00:26:10;97977.78;;;11.61;90.93
6094;BME280;19964;42.060;24.700;2023-10-13T00:28:44;97977.00;;;11.61;90.83
6094;BME280;19964;42.060;24.700;2023-10-13T00:31:11;97965.16;;;11.65;90.55
6094;BME280;19964;42.060;24.700;2023-10-13T00:33:39;97970.34;;;11.65;90.50
6094;BME280;19964;42.060;24.700;2023-10-13T00:36:08;97971.88;;;11.73;89.99
6094;BME280;19964;42.060;24.700;2023-10-13T00:38:42;97973.78;;;11.66;90.50
6094;BME280;19964;42.060;24.700;2023-10-13T00:41:14;97965.81;;;11.60;90.88
6094;BME280;19964;42.060;24.700;2023-10-13T00:43:45;97973.59;;;11.60;91.00
6094;BME280;19964;42.060;24.700;2023-10-13T00:46:11;97972.16;;;11.64;90.80
6094;BME280;19964;42.060;24.700;2023-10-13T00:48:40;97967.41;;;11.61;91.23
6094;BME280;19964;42.060;24.700;2023-10-13T00:51:17;97970.81;;;11.62;90.95
6094;BME280;19964;42.060;24.700;2023-10-13T00:53:57;97970.31;;;11.53;91.53
6094;BME280;19964;42.060;24.700;2023-10-13T00:56:24;97960.94;;;11.52;91.74
6094;BME280;19964;42.060;24.700;2023-10-13T00:58:54;97956.97;;;11.50;91.37
6094;BME280;19964;42.060;24.700;2023-10-13T01:01:22;97959.66;;;11.43;92.09
6094;BME280;19964;42.060;24.700;2023-10-13T01:03:54;97955.56;;;11.36;92.33
6094;BME280;19964;42.060;24.700;2023-10-13T01:06:21;97960.31;;;11.39;92.22
6094;BME280;19964;42.060;24.700;2023-10-13T01:08:56;97951.22;;;11.30;93.37
6094;BME280;19964;42.060;24.700;2023-10-13T01:11:22;97953.75;;;11.36;93.17
6094;BME280;19964;42.060;24.700;2023-10-13T01:13:50;97947.13;;;11.40;92.71
6094;BME280;19964;42.060;24.700;2023-10-13T01:16:16;97949.94;;;11.39;93.44
6094;BME280;19964;42.060;24.700;2023-10-13T01:18:43;97953.75;;;11.36;93.24
6094;BME280;19964;42.060;24.700;2023-10-13T01:21:13;97947.41;;;11.32;93.26
6094;BME280;19964;42.060;24.700;2023-10-13T01:23:42;97951.22;;;11.30;93.79
6094;BME280;19964;42.060;24.700;2023-10-13T01:26:08;97957.50;;;11.40;93.05
6094;BME280;19964;42.060;24.700;2023-10-13T01:28:34;97959.38;;;11.33;93.12
6094;BME280;19964;42.060;24.700;2023-10-13T01:31:09;97956.72;;;11.40;92.69
6094;BME280;19964;42.060;24.700;2023-10-13T01:33:37;97956.66;;;11.28;93.96
6094;BME280;19964;42.060;24.700;2023-10-13T01:36:04;97952.03;;;11.30;93.72
6094;BME280;19964;42.060;24.700;2023-10-13T01:38:36;97949.44;;;11.12;94.65
6094;BME280;19964;42.060;24.700;2023-10-13T01:41:07;97949.16;;;11.02;96.01
6094;BME280;19964;42.060;24.700;2023-10-13T01:43:34;97945.41;;;11.16;95.26
6094;BME280;19964;42.060;24.700;2023-10-13T01:46:01;97940.50;;;11.26;94.84
6094;BME280;19964;42.060;24.700;2023-10-13T01:48:28;97945.91;;;11.25;94.95
6094;BME280;19964;42.060;24.700;2023-10-13T01:50:57;97947.25;;;11.27;94.88
6094;BME280;19964;42.060;24.700;2023-10-13T01:53:25;97944.47;;;11.29;94.46
6094;BME280;19964;42.060;24.700;2023-10-13T01:55:54;97943.38;;;11.36;93.49
6094;BME280;19964;42.060;24.700;2023-10-13T01:58:23;97942.75;;;11.41;92.95
6094;BME280;19964;42.060;24.700;2023-10-13T02:00:51;97944.53;;;11.40;93.33
6094;BME280;19964;42.060;24.700;2023-10-13T02:03:17;97941.50;;;11.43;93.08
6094;BME280;19964;42.060;24.700;2023-10-13T02:05:43;97938.41;;;11.35;93.88
6094;BME280;19964;42.060;24.700;2023-10-13T02:08:12;97930.72;;;11.28;94.11
6094;BME280;19964;42.060;24.700;2023-10-13T02:10:43;97928.56;;;11.25;94.50
6094;BME280;19964;42.060;24.700;2023-10-13T02:13:11;97927.59;;;11.20;94.88
6094;BME280;19964;42.060;24.700;2023-10-13T02:15:42;97932.78;;;11.20;95.12
6094;BME280;19964;42.060;24.700;2023-10-13T02:18:09;97937.69;;;11.28;94.25
6094;BME280;19964;42.060;24.700;2023-10-13T02:20:35;97942.31;;;11.26;94.30
6094;BME280;19964;42.060;24.700;2023-10-13T02:23:08;97943.31;;;11.25;94.34
6094;BME280;19964;42.060;24.700;2023-10-13T02:25:35;97943.16;;;11.20;94.60
6094;BME280;19964;42.060;24.700;2023-10-13T02:28:07;97938.19;;;11.18;94.91
6094;BME280;19964;42.060;24.700;2023-10-13T02:30:39;97933.31;;;11.28;94.56
6094;BME280;19964;42.060;24.700;2023-10-13T02:33:06;97936.41;;;11.19;95.05
6094;BME280;19964;42.060;24.700;2023-10-13T02:35:35;97943.91;;;11.27;94.94
6094;BME280;19964;42.060;24.700;2023-10-13T02:38:01;97944.25;;;11.30;94.89
6094;BME280;19964;42.060;24.700;2023-10-13T02:40:35;97954.03;;;11.46;93.99
6094;BME280;19964;42.060;24.700;2023-10-13T02:43:01;97948.63;;;11.48;92.93
6094;BME280;19964;42.060;24.700;2023-10-13T02:45:29;97945.06;;;11.31;93.52
6094;BME280;19964;42.060;24.700;2023-10-13T02:47:55;97954.34;;;11.38;93.98
6094;BME280;19964;42.060;24.700;2023-10-13T02:50:37;97953.34;;;11.21;95.07
6094;BME280;19964;42.060;24.700;2023-10-13T02:53:03;97950.88;;;11.26;95.00
6094;BME280;19964;42.060;24.700;2023-10-13T02:55:37;97944.13;;;11.07;96.18
6094;BME280;19964;42.060;24.700;2023-10-13T02:58:05;97940.31;;;11.10;96.20
6094;BME280;19964;42.060;24.700;2023-10-13T03:00:34;97903.22;;;10.91;96.30
6094;BME280;19964;42.060;24.700;2023-10-13T03:02:59;97938.38;;;11.23;94.82
6094;BME280;19964;42.060;24.700;2023-10-13T03:05:26;97939.81;;;11.19;94.66
6094;BME280;19964;42.060;24.700;2023-10-13T03:07:57;97930.59;;;11.23;95.02
6094;BME280;19964;42.060;24.700;2023-10-13T03:10:29;97931.06;;;11.32;94.66
6094;BME280;19964;42.060;24.700;2023-10-13T03:12:54;97923.78;;;11.40;94.07
6094;BME280;19964;42.060;24.700;2023-10-13T03:15:22;97927.59;;;11.38;94.12
6094;BME280;19964;42.060;24.700;2023-10-13T03:17:57;97920.97;;;11.42;93.94
6094;BME280;19964;42.060;24.700;2023-10-13T03:20:24;97928.13;;;11.58;92.38
6094;BME280;19964;42.060;24.700;2023-10-13T03:22:58;97923.31;;;11.43;93.68
6094;BME280;19964;42.060;24.700;2023-10-13T03:25:24;97918.50;;;11.47;93.59
6094;BME280;19964;42.060;24.700;2023-10-13T03:27:54;97912.94;;;11.43;93.90
6094;BME280;19964;42.060;24.700;2023-10-13T03:30:29;97908.63;;;11.37;94.21
6094;BME280;19964;42.060;24.700;2023-10-13T03:33:00;97916.41;;;11.37;94.18
6094;BME280;19964;42.060;24.700;2023-10-13T03:35:31;97912.59;;;11.40;94.70
6094;BME280;19964;42.060;24.700;2023-10-13T03:38:05;97917.25;;;11.49;94.24
6094;BME280;19964;42.060;24.700;2023-10-13T03:40:40;97876.13;;;11.05;94.83
6094;BME280;19964;42.060;24.700;2023-10-13T03:43:06;97903.69;;;11.18;96.08
6094;BME280;19964;42.060;24.700;2023-10-13T03:45:35;97904.00;;;11.10;97.01
6094;BME280;19964;42.060;24.700;2023-10-13T03:48:05;97902.47;;;11.02;98.17
6094;BME280;19964;42.060;24.700;2023-10-13T03:50:35;97900.41;;;10.93;98.54
6094;BME280;19964;42.060;24.700;2023-10-13T03:53:01;97898.38;;;10.95;98.82
6094;BME280;19964;42.060;24.700;2023-10-13T03:55:32;97898.91;;;10.85;99.53
6094;BME280;19964;42.060;24.700;2023-10-13T03:58:00;97894.16;;;10.82;100.00
6094;BME280;19964;42.060;24.700;2023-10-13T04:00:28;97901.44;;;10.92;100.00
6094;BME280;19964;42.060;24.700;2023-10-13T04:02:56;97897.97;;;10.98;99.85
6094;BME280;19964;42.060;24.700;2023-10-13T04:05:34;97906.91;;;11.02;98.97
6094;BME280;19964;42.060;24.700;2023-10-13T04:08:07;97897.16;;;11.15;97.63
6094;BME280;19964;42.060;24.700;2023-10-13T04:10:53;97901.91;;;11.18;97.60
6094;BME280;19964;42.060;24.700;2023-10-13T04:13:37;97910.53;;;11.12;97.31
6094;BME280;19964;42.060;24.700;2023-10-13T04:16:29;97917.25;;;11.20;97.36
6094;BME280;19964;42.060;24.700;2023-10-13T04:19:16;97910.97;;;11.27;97.24
6094;BME280;19964;42.060;24.700;2023-10-13T04:21:48;97914.88;;;11.18;97.18
6094;BME280;19964;42.060;24.700;2023-10-13T04:24:25;97919.94;;;11.13;97.25
6094;BME280;19964;42.060;24.700;2023-10-13T04:27:21;97915.09;;;11.17;97.19
6094;BME280;19964;42.060;24.700;2023-10-13T04:30:18;97915.50;;;11.14;97.60
6094;BME280;19964;42.060;24.700;2023-10-13T04:32:52;97915.03;;;11.05;98.48
6094;BME280;19964;42.060;24.700;2023-10-13T04:36:01;97920.13;;;11.12;98.00
6094;BME280;19964;42.060;24.700;2023-10-13T04:38:26;97922.41;;;11.20;98.06
6094;BME280;19964;42.060;24.700;2023-10-13T04:41:14;97928.69;;;11.30;97.34
6094;BME280;19964;42.060;24.700;2023-10-13T04:43:49;97936.69;;;11.29;97.25
6094;BME280;19964;42.060;24.700;2023-10-13T04:46:23;97942.97;;;11.21;97.46
6094;BME280;19964;42.060;24.700;2023-10-13T04:49:00;97944.03;;;11.14;97.81
6094;BME280;19964;42.060;24.700;2023-10-13T04:51:36;97942.97;;;11.21;97.93
6094;BME280;19964;42.060;24.700;2023-10-13T04:54:17;97928.56;;;10.89;99.21
6094;BME280;19964;42.060;24.700;2023-10-13T04:56:58;97919.25;;;10.63;100.00
6094;BME280;19964;42.060;24.700;2023-10-13T04:59:43;97910.03;;;10.67;100.00
6094;BME280;19964;42.060;24.700;2023-10-13T05:02:24;97897.69;;;10.88;100.00
6094;BME280;19964;42.060;24.700;2023-10-13T05:05:20;97906.22;;;11.24;100.00
6094;BME280;19964;42.060;24.700;2023-10-13T05:08:04;97918.41;;;11.72;99.66
6094;BME280;19964;42.060;24.700;2023-10-13T05:10:48;97924.16;;;12.38;94.57
6094;BME280;19964;42.060;24.700;2023-10-13T05:13:33;97925.72;;;12.97;89.85
6094;BME280;19964;42.060;24.700;2023-10-13T05:16:18;97920.44;;;13.60;85.63
6094;BME280;19964;42.060;24.700;2023-10-13T05:19:02;97921.03;;;14.56;80.90
6094;BME280;19964;42.060;24.700;2023-10-13T05:21:46;97911.25;;;14.85;78.25
6094;BME280;19964;42.060;24.700;2023-10-13T05:24:30;97906.81;;;15.29;75.61
6094;BME280;19964;42.060;24.700;2023-10-13T05:27:14;97915.56;;;15.87;73.38
6094;BME280;19964;42.060;24.700;2023-10-13T05:29:58;97911.13;;;16.56;70.13
6094;BME280;19964;42.060;24.700;2023-10-13T05:32:58;97927.72;;;17.24;66.94
6094;BME280;19964;42.060;24.700;2023-10-13T05:35:42;97937.97;;;17.40;65.20
6094;BME280;19964;42.060;24.700;2023-10-13T05:38:26;97939.41;;;15.96;69.35
6094;BME280;19964;42.060;24.700;2023-10-13T05:41:10;97941.19;;;15.64;70.00
6094;BME280;19964;42.060;24.700;2023-10-13T05:43:54;97937.22;;;15.40;72.03
6094;BME280;19964;42.060;24.700;2023-10-13T05:46:39;97945.97;;;15.72;70.01
6094;BME280;19964;42.060;24.700;2023-10-13T05:49:32;97957.09;;;15.19;71.12
6094;BME280;19964;42.060;24.700;2023-10-13T05:52:18;97962.41;;;15.29;71.73
6094;BME280;19964;42.060;24.700;2023-10-13T05:55:01;97980.69;;;15.46;70.96
6094;BME280;19964;42.060;24.700;2023-10-13T05:57:50;97979.41;;;15.70;69.50
6094;BME280;19964;42.060;24.700;2023-10-13T06:00:38;97991.06;;;16.16;67.67
6094;BME280;19964;42.060;24.700;2023-10-13T06:03:22;97999.75;;;17.31;64.18
6094;BME280;19964;42.060;24.700;2023-10-13T06:06:07;97995.50;;;17.72;61.68
6094;BME280;19964;42.060;24.700;2023-10-13T06:08:51;98004.41;;;16.77;63.40
6094;BME280;19964;42.060;24.700;2023-10-13T06:11:35;98001.66;;;16.99;63.09
6094;BME280;19964;42.060;24.700;2023-10-13T06:14:19;98012.75;;;16.69;63.11
6094;BME280;19964;42.060;24.700;2023-10-13T06:17:04;98020.16;;;16.82;63.22
6094;BME280;19964;42.060;24.700;2023-10-13T06:19:48;98021.09;;;17.50;61.69
6094;BME280;19964;42.060;24.700;2023-10-13T06:22:33;98013.19;;;18.27;59.01
6094;BME280;19964;42.060;24.700;2023-10-13T06:25:17;98003.25;;;18.54;58.05
6094;BME280;19964;42.060;24.700;2023-10-13T06:28:01;98001.03;;;19.21;56.98
6094;BME280;19964;42.060;24.700;2023-10-13T06:30:53;98006.13;;;19.77;55.19
6094;BME280;19964;42.060;24.700;2023-10-13T06:33:21;98002.03;;;20.43;54.19
6094;BME280;19964;42.060;24.700;2023-10-13T06:35:53;98002.03;;;20.77;52.80
6094;BME280;19964;42.060;24.700;2023-10-13T06:38:23;97999.75;;;20.94;51.63
6094;BME280;19964;42.060;24.700;2023-10-13T06:40:55;98001.06;;;19.16;55.63
6094;BME280;19964;42.060;24.700;2023-10-13T06:43:22;98007.47;;;18.45;58.07
6094;BME280;19964;42.060;24.700;2023-10-13T06:45:49;97999.84;;;18.58;58.52
6094;BME280;19964;42.060;24.700;2023-10-13T06:48:26;97998.75;;;18.39;58.46
6094;BME280;19964;42.060;24.700;2023-10-13T06:50:58;98006.13;;;18.57;58.64
6094;BME280;19964;42.060;24.700;2023-10-13T06:53:38;98007.97;;;18.72;58.08
6094;BME280;19964;42.060;24.700;2023-10-13T06:56:11;98006.38;;;18.91;57.46
6094;BME280;19964;42.060;24.700;2023-10-13T06:58:43;98002.69;;;18.42;58.07
6094;BME280;19964;42.060;24.700;2023-10-13T07:01:12;98002.88;;;19.26;57.18
6094;BME280;19964;42.060;24.700;2023-10-13T07:03:41;97999.16;;;19.47;56.61
6094;BME280;19964;42.060;24.700;2023-10-13T07:06:07;98000.88;;;20.15;55.19
6094;BME280;19964;42.060;24.700;2023-10-13T07:08:38;98004.97;;;20.36;53.79
6094;BME280;19964;42.060;24.700;2023-10-13T07:11:05;98009.25;;;19.79;54.48
6094;BME280;19964;42.060;24.700;2023-10-13T07:13:33;98003.19;;;19.83;56.15
6094;BME280;19964;42.060;24.700;2023-10-13T07:16:03;98006.91;;;20.60;54.77
6094;BME280;19964;42.060;24.700;2023-10-13T07:18:33;98003.94;;;20.66;54.35
6094;BME280;19964;42.060;24.700;2023-10-13T07:21:03;98008.84;;;20.49;54.09
6094;BME280;19964;42.060;24.700;2023-10-13T07:23:35;98011.78;;;20.42;53.90
6094;BME280;19964;42.060;24.700;2023-10-13T07:26:04;98020.41;;;20.82;54.48
6094;BME280;19964;42.060;24.700;2023-10-13T07:28:33;98029.63;;;20.51;54.55
6094;BME280;19964;42.060;24.700;2023-10-13T07:31:01;98026.53;;;20.38;53.62
6094;BME280;19964;42.060;24.700;2023-10-13T07:33:41;98031.59;;;21.02;53.03
6094;BME280;19964;42.060;24.700;2023-10-13T07:36:08;98028.69;;;21.51;51.31
6094;BME280;19964;42.060;24.700;2023-10-13T07:38:42;98023.06;;;22.19;50.01
6094;BME280;19964;42.060;24.700;2023-10-13T07:41:15;98012.97;;;22.39;49.92
6094;BME280;19964;42.060;24.700;2023-10-13T07:43:42;98016.09;;;22.92;48.74
6094;BME280;19964;42.060;24.700;2023-10-13T07:46:10;98013.13;;;23.53;47.86
6094;BME280;19964;42.060;24.700;2023-10-13T07:48:37;98007.78;;;23.94;45.49
6094;BME280;19964;42.060;24.700;2023-10-13T07:51:05;98017.16;;;24.13;44.99
6094;BME280;19964;42.060;24.700;2023-10-13T07:53:36;98007.81;;;24.29;46.15
6094;BME280;19964;42.060;24.700;2023-10-13T07:56:05;98007.22;;;23.83;47.94
6094;BME280;19964;42.060;24.700;2023-10-13T07:58:34;98010.16;;;23.68;45.44
6094;BME280;19964;42.060;24.700;2023-10-13T08:01:12;97999.25;;;23.97;45.26
6094;BME280;19964;42.060;24.700;2023-10-13T08:03:42;98001.50;;;23.40;46.00
6094;BME280;19964;42.060;24.700;2023-10-13T08:06:12;98005.00;;;23.49;45.26
6094;BME280;19964;42.060;24.700;2023-10-13T08:08:52;98006.91;;;22.89;47.01
6094;BME280;19964;42.060;24.700;2023-10-13T08:11:32;98008.91;;;22.97;47.01
6094;BME280;19964;42.060;24.700;2023-10-13T08:14:01;98017.16;;;22.77;47.28
6094;BME280;19964;42.060;24.700;2023-10-13T08:16:37;98013.22;;;22.43;48.39
6094;BME280;19964;42.060;24.700;2023-10-13T08:19:18;98017.78;;;22.19;47.36
6094;BME280;19964;42.060;24.700;2023-10-13T08:21:45;98015.25;;;22.46;46.48
6094;BME280;19964;42.060;24.700;2023-10-13T08:24:17;98012.13;;;22.62;46.01
6094;BME280;19964;42.060;24.700;2023-10-13T08:26:50;98006.53;;;23.23;45.98
6094;BME280;19964;42.060;24.700;2023-10-13T08:29:25;98013.53;;;23.73;45.01
6094;BME280;19964;42.060;24.700;2023-10-13T08:32:09;98008.47;;;24.35;46.60
6094;BME280;19964;42.060;24.700;2023-10-13T08:35:01;98004.97;;;25.01;43.80
6094;BME280;19964;42.060;24.700;2023-10-13T08:37:48;98002.22;;;25.14;43.12
6094;BME280;19964;42.060;24.700;2023-10-13T08:40:26;97997.75;;;25.23;41.86
6094;BME280;19964;42.060;24.700;2023-10-13T08:43:13;97993.00;;;24.73;42.92
6094;BME280;19964;42.060;24.700;2023-10-13T08:45:41;97980.72;;;24.10;43.41
6094;BME280;19964;42.060;24.700;2023-10-13T08:48:19;97974.69;;;24.40;43.21
6094;BME280;19964;42.060;24.700;2023-10-13T08:50:52;97927.16;;;23.77;43.19
6094;BME280;19964;42.060;24.700;2023-10-13T08:53:21;97970.75;;;24.82;42.79
6094;BME280;19964;42.060;24.700;2023-10-13T08:55:52;97969.47;;;24.80;42.43
6094;BME280;19964;42.060;24.700;2023-10-13T08:58:30;97974.84;;;24.97;42.06
6094;BME280;19964;42.060;24.700;2023-10-13T09:01:12;97971.41;;;24.65;41.52
6094;BME280;19964;42.060;24.700;2023-10-13T09:03:59;97973.69;;;25.11;41.51
6094;BME280;19964;42.060;24.700;2023-10-13T09:06:46;97978.72;;;25.21;41.34
6094;BME280;19964;42.060;24.700;2023-10-13T09:09:15;97977.25;;;25.46;41.08
6094;BME280;19964;42.060;24.700;2023-10-13T09:11:53;97976.69;;;24.88;42.09
6094;BME280;19964;42.060;24.700;2023-10-13T09:14:34;97978.03;;;25.46;41.04
6094;BME280;19964;42.060;24.700;2023-10-13T09:17:06;97971.03;;;25.50;40.95
6094;BME280;19964;42.060;24.700;2023-10-13T09:19:59;97969.16;;;25.59;41.79
6094;BME280;19964;42.060;24.700;2023-10-13T09:22:44;97974.75;;;25.49;39.53
6094;BME280;19964;42.060;24.700;2023-10-13T09:25:21;97967.59;;;25.58;41.28
6094;BME280;19964;42.060;24.700;2023-10-13T09:27:48;97961.78;;;25.39;41.20
6094;BME280;19964;42.060;24.700;2023-10-13T09:30:16;97974.47;;;25.59;41.66
6094;BME280;19964;42.060;24.700;2023-10-13T09:32:44;97977.72;;;25.39;40.97
6094;BME280;19964;42.060;24.700;2023-10-13T09:35:16;97974.50;;;25.68;40.57
6094;BME280;19964;42.060;24.700;2023-10-13T09:37:42;97981.22;;;25.91;40.62
6094;BME280;19964;42.060;24.700;2023-10-13T09:40:11;97981.56;;;25.33;40.51
6094;BME280;19964;42.060;24.700;2023-10-13T09:42:51;97986.56;;;25.35;40.36
6094;BME280;19964;42.060;24.700;2023-10-13T09:45:22;97978.34;;;25.45;40.40
6094;BME280;19964;42.060;24.700;2023-10-13T09:47:54;97984.03;;;25.86;40.34
6094;BME280;19964;42.060;24.700;2023-10-13T09:50:22;97985.59;;;26.47;39.36
6094;BME280;19964;42.060;24.700;2023-10-13T09:52:49;97980.25;;;26.64;38.56
6094;BME280;19964;42.060;24.700;2023-10-13T09:55:19;97982.94;;;26.04;38.41
6094;BME280;19964;42.060;24.700;2023-10-13T09:57:48;97979.97;;;25.80;41.07
6094;BME280;19964;42.060;24.700;2023-10-13T10:00:22;97983.34;;;25.46;40.60
6094;BME280;19964;42.060;24.700;2023-10-13T10:03:12;97970.16;;;26.15;39.02
6094;BME280;19964;42.060;24.700;2023-10-13T10:05:58;97970.75;;;26.46;38.11
6094;BME280;19964;42.060;24.700;2023-10-13T10:08:30;97962.63;;;26.34;39.46
6094;BME280;19964;42.060;24.700;2023-10-13T10:11:07;97962.50;;;26.30;37.83
6094;BME280;19964;42.060;24.700;2023-10-13T10:13:44;97957.75;;;26.62;36.87
6094;BME280;19964;42.060;24.700;2023-10-13T10:16:18;97945.56;;;26.43;37.47
6094;BME280;19964;42.060;24.700;2023-10-13T10:18:58;97944.91;;;26.64;37.45
6094;BME280;19964;42.060;24.700;2023-10-13T10:21:32;97939.75;;;26.59;37.28
6094;BME280;19964;42.060;24.700;2023-10-13T10:23:58;97936.63;;;26.65;38.15
6094;BME280;19964;42.060;24.700;2023-10-13T10:26:30;97934.47;;;26.50;37.46
6094;BME280;19964;42.060;24.700;2023-10-13T10:28:57;97933.16;;;26.82;37.63
6094;BME280;19964;42.060;24.700;2023-10-13T10:31:31;97926.28;;;26.72;37.15
6094;BME280;19964;42.060;24.700;2023-10-13T10:34:11;97926.00;;;27.32;36.61
6094;BME280;19964;42.060;24.700;2023-10-13T10:36:38;97917.28;;;27.52;36.79
6094;BME280;19964;42.060;24.700;2023-10-13T10:39:08;97919.25;;;27.84;36.87
6094;BME280;19964;42.060;24.700;2023-10-13T10:41:37;97915.88;;;27.55;36.90
6094;BME280;19964;42.060;24.700;2023-10-13T10:44:11;97909.94;;;27.70;38.17
6094;BME280;19964;42.060;24.700;2023-10-13T10:46:48;97910.88;;;27.53;35.45
6094;BME280;19964;42.060;24.700;2023-10-13T10:49:25;97906.97;;;27.51;35.95
6094;BME280;19964;42.060;24.700;2023-10-13T10:51:57;97900.72;;;27.47;35.50
6094;BME280;19964;42.060;24.700;2023-10-13T10:54:27;97858.03;;;27.14;35.10
6094;BME280;19964;42.060;24.700;2023-10-13T10:56:57;97893.44;;;26.77;36.44
6094;BME280;19964;42.060;24.700;2023-10-13T10:59:35;97901.91;;;27.37;35.67
6094;BME280;19964;42.060;24.700;2023-10-13T11:02:02;97900.22;;;27.53;35.61
6094;BME280;19964;42.060;24.700;2023-10-13T11:04:32;97887.72;;;28.07;35.26
6094;BME280;19964;42.060;24.700;2023-10-13T11:07:00;97887.66;;;28.60;35.39
6094;BME280;19964;42.060;24.700;2023-10-13T11:09:28;97883.00;;;28.57;34.21
6094;BME280;19964;42.060;24.700;2023-10-13T11:12:12;97882.06;;;27.88;34.84
6094;BME280;19964;42.060;24.700;2023-10-13T11:14:59;97884.75;;;27.88;34.56
6094;BME280;19964;42.060;24.700;2023-10-13T11:17:26;97885.31;;;27.93;34.27
6094;BME280;19964;42.060;24.700;2023-10-13T11:20:09;97879.63;;;27.62;34.25
6094;BME280;19964;42.060;24.700;2023-10-13T11:22:41;97872.56;;;27.46;36.41
6094;BME280;19964;42.060;24.700;2023-10-13T11:25:19;97879.16;;;27.60;35.54
6094;BME280;19964;42.060;24.700;2023-10-13T11:27:47;97864.75;;;27.11;35.88
6094;BME280;19964;42.060;24.700;2023-10-13T11:30:25;97870.81;;;27.50;36.23
6094;BME280;19964;42.060;24.700;2023-10-13T11:32:58;97868.50;;;27.19;35.55
6094;BME280;19964;42.060;24.700;2023-10-13T11:35:28;97870.03;;;27.20;34.69
6094;BME280;19964;42.060;24.700;2023-10-13T11:38:14;97870.41;;;27.60;34.19
6094;BME280;19964;42.060;24.700;2023-10-13T11:40:50;97869.47;;;27.76;34.52
6094;BME280;19964;42.060;24.700;2023-10-13T11:43:32;97865.34;;;27.67;34.62
6094;BME280;19964;42.060;24.700;2023-10-13T11:46:05;97860.75;;;27.55;36.39
6094;BME280;19964;42.060;24.700;2023-10-13T11:48:38;97862.34;;;27.68;36.69
6094;BME280;19964;42.060;24.700;2023-10-13T11:51:08;97861.06;;;27.54;34.85
6094;BME280;19964;42.060;24.700;2023-10-13T11:53:42;97862.16;;;27.53;35.68
6094;BME280;19964;42.060;24.700;2023-10-13T11:56:10;97859.97;;;27.34;36.37
6094;BME280;19964;42.060;24.700;2023-10-13T11:58:37;97858.69;;;27.11;36.64
6094;BME280;19964;42.060;24.700;2023-10-13T12:01:04;97855.41;;;26.76;37.75
6094;BME280;19964;42.060;24.700;2023-10-13T12:03:45;97856.38;;;26.63;38.07
6094;BME280;19964;42.060;24.700;2023-10-13T12:06:33;97857.53;;;27.20;36.56
6094;BME280;19964;42.060;24.700;2023-10-13T12:09:12;97854.31;;;27.27;35.13
6094;BME280;19964;42.060;24.700;2023-10-13T12:11:39;97862.50;;;27.22;35.88
6094;BME280;19964;42.060;24.700;2023-10-13T12:14:07;97858.09;;;27.26;36.41
6094;BME280;19964;42.060;24.700;2023-10-13T12:16:45;97867.44;;;27.61;34.28
6094;BME280;19964;42.060;24.700;2023-10-13T12:19:14;97860.31;;;27.24;36.08
6094;BME280;19964;42.060;24.700;2023-10-13T12:21:43;97864.59;;;27.16;35.88
6094;BME280;19964;42.060;24.700;2023-10-13T12:24:11;97855.34;;;26.93;35.73
6094;BME280;19964;42.060;24.700;2023-10-13T12:26:49;97862.63;;;27.05;34.67
6094;BME280;19964;42.060;24.700;2023-10-13T12:29:22;97861.72;;;27.21;35.57
6094;BME280;19964;42.060;24.700;2023-10-13T12:31:53;97862.66;;;26.96;35.65
6094;BME280;19964;42.060;24.700;2023-10-13T12:34:33;97857.91;;;27.31;35.35
6094;BME280;19964;42.060;24.700;2023-10-13T12:37:24;97860.53;;;27.40;35.48
6094;BME280;19964;42.060;24.700;2023-10-13T12:40:15;97859.69;;;27.48;34.79
6094;BME280;19964;42.060;24.700;2023-10-13T12:43:00;97871.06;;;27.07;34.72
6094;BME280;19964;42.060;24.700;2023-10-13T12:45:44;97867.56;;;27.44;35.10
6094;BME280;19964;42.060;24.700;2023-10-13T12:48:29;97870.88;;;27.12;34.18
6094;BME280;19964;42.060;24.700;2023-10-13T12:51:14;97870.09;;;27.11;34.59
6094;BME280;19964;42.060;24.700;2023-10-13T12:53:47;97866.56;;;27.49;34.35
6094;BME280;19964;42.060;24.700;2023-10-13T12:56:14;97862.81;;;27.70;34.85
6094;BME280;19964;42.060;24.700;2023-10-13T12:58:42;97863.53;;;27.79;33.92
6094;BME280;19964;42.060;24.700;2023-10-13T13:01:17;97855.94;;;27.69;33.66
6094;BME280;19964;42.060;24.700;2023-10-13T13:03:45;97862.03;;;27.49;33.65
6094;BME280;19964;42.060;24.700;2023-10-13T13:06:15;97856.25;;;27.47;33.77
6094;BME280;19964;42.060;24.700;2023-10-13T13:08:43;97857.91;;;27.31;33.94
6094;BME280;19964;42.060;24.700;2023-10-13T13:11:13;97858.47;;;27.45;34.46
6094;BME280;19964;42.060;24.700;2023-10-13T13:13:39;97857.69;;;27.15;35.05
6094;BME280;19964;42.060;24.700;2023-10-13T13:16:06;97862.53;;;26.93;34.99
6094;BME280;19964;42.060;24.700;2023-10-13T13:18:33;97854.41;;;26.89;34.71
6094;BME280;19964;42.060;24.700;2023-10-13T13:20:59;97853.63;;;26.51;35.80
6094;BME280;19964;42.060;24.700;2023-10-13T13:23:27;97853.34;;;26.35;36.00
6094;BME280;19964;42.060;24.700;2023-10-13T13:25:56;97850.16;;;26.59;35.96
6094;BME280;19964;42.060;24.700;2023-10-13T13:28:24;97857.78;;;26.69;35.43
6094;BME280;19964;42.060;24.700;2023-10-13T13:30:53;97856.06;;;26.73;35.17
6094;BME280;19964;42.060;24.700;2023-10-13T13:33:20;97854.25;;;26.48;35.41
6094;BME280;19964;42.060;24.700;2023-10-13T13:35:52;97851.03;;;26.34;35.51